sensor_id;sensor_type;location;lat;lon;timestamp;pressure;altitude;pressure_sealevel;temperature;humidity
69245;BME280;56357;52.304;4.870;2023-03-03T00:01:36;102795.56;;;17.73;48.04
69245;BME280;56357;52.304;4.870;2023-03-03T00:04:02;102802.47;;;17.70;47.81
69245;BME280;56357;52.304;4.870;2023-03-03T00:06:29;102795.16;;;17.69;47.99
69245;BME280;56357;52.304;4.870;2023-03-03T00:08:55;102791.25;;;17.70;47.86
69245;BME280;56357;52.304;4.870;2023-03-03T00:11:22;102793.44;;;17.68;48.09
69245;BME280;56357;52.304;4.870;2023-03-03T00:13:53;102789.38;;;17.64;47.69
69245;BME280;56357;52.304;4.870;2023-03-03T00:16:36;102784.44;;;17.60;48.07
69245;BME280;56357;52.304;4.870;2023-03-03T00:19:12;102790.47;;;17.63;47.69
69245;BME280;56357;52.304;4.870;2023-03-03T00:21:43;102806.81;;;17.66;47.85
69245;BME280;56357;52.304;4.870;2023-03-03T00:24:14;102798.25;;;17.61;47.83
69245;BME280;56357;52.304;4.870;2023-03-03T00:29:23;102794.44;;;17.56;47.81
69245;BME280;56357;52.304;4.870;2023-03-03T00:31:51;102790.75;;;17.55;47.91
69245;BME280;56357;52.304;4.870;2023-03-03T00:34:26;102799.41;;;17.54;47.78
69245;BME280;56357;52.304;4.870;2023-03-03T00:36:56;102807.38;;;17.50;47.99
69245;BME280;56357;52.304;4.870;2023-03-03T00:39:37;102796.63;;;17.47;48.05
69245;BME280;56357;52.304;4.870;2023-03-03T00:42:12;102791.50;;;17.44;48.07
69245;BME280;56357;52.304;4.870;2023-03-03T00:44:43;102800.53;;;17.46;47.95
69245;BME280;56357;52.304;4.870;2023-03-03T00:47:24;102799.28;;;17.42;47.66
69245;BME280;56357;52.304;4.870;2023-03-03T00:52:34;102804.88;;;17.42;48.02
69245;BME280;56357;52.304;4.870;2023-03-03T00:55:01;102807.09;;;17.33;48.06
69245;BME280;56357;52.304;4.870;2023-03-03T00:57:28;102807.03;;;17.40;47.66
69245;BME280;56357;52.304;4.870;2023-03-03T00:59:54;102801.44;;;17.40;47.86
69245;BME280;56357;52.304;4.870;2023-03-03T01:02:21;102812.44;;;17.35;48.06
69245;BME280;56357;52.304;4.870;2023-03-03T01:04:50;102806.19;;;17.39;47.91
69245;BME280;56357;52.304;4.870;2023-03-03T01:07:17;102803.41;;;17.33;47.90
69245;BME280;56357;52.304;4.870;2023-03-03T01:09:44;102816.34;;;17.34;48.01
69245;BME280;56357;52.304;4.870;2023-03-03T01:12:11;102815.53;;;17.27;48.28
69245;BME280;56357;52.304;4.870;2023-03-03T01:14:38;102811.03;;;17.26;48.04
69245;BME280;56357;52.304;4.870;2023-03-03T01:17:05;102819.59;;;17.31;47.80
69245;BME280;56357;52.304;4.870;2023-03-03T01:19:31;102809.53;;;17.23;47.84
69245;BME280;56357;52.304;4.870;2023-03-03T01:21:58;102815.84;;;17.19;47.86
69245;BME280;56357;52.304;4.870;2023-03-03T01:24:24;102813.19;;;17.24;47.81
69245;BME280;56357;52.304;4.870;2023-03-03T01:26:51;102813.66;;;17.21;47.79
69245;BME280;56357;52.304;4.870;2023-03-03T01:29:17;102811.53;;;17.16;48.03
69245;BME280;56357;52.304;4.870;2023-03-03T01:31:44;102813.06;;;17.12;47.87
69245;BME280;56357;52.304;4.870;2023-03-03T01:34:10;102817.53;;;17.20;47.73
69245;BME280;56357;52.304;4.870;2023-03-03T01:36:37;102816.28;;;17.16;48.05
69245;BME280;56357;52.304;4.870;2023-03-03T01:39:03;102814.38;;;17.10;48.00
69245;BME280;56357;52.304;4.870;2023-03-03T01:41:31;102821.88;;;17.16;47.79
69245;BME280;56357;52.304;4.870;2023-03-03T01:43:58;102813.72;;;17.14;47.82
69245;BME280;56357;52.304;4.870;2023-03-03T01:48:58;102808.56;;;17.11;47.85
69245;BME280;56357;52.304;4.870;2023-03-03T01:51:34;102813.75;;;17.08;47.77
69245;BME280;56357;52.304;4.870;2023-03-03T01:54:04;102812.50;;;17.04;47.69
69245;BME280;56357;52.304;4.870;2023-03-03T01:56:31;102805.19;;;17.03;47.52
69245;BME280;56357;52.304;4.870;2023-03-03T01:59:02;102808.63;;;17.05;47.74
69245;BME280;56357;52.304;4.870;2023-03-03T02:01:31;102810.50;;;17.11;47.64
69245;BME280;56357;52.304;4.870;2023-03-03T02:03:59;102807.31;;;17.07;47.55
69245;BME280;56357;52.304;4.870;2023-03-03T02:06:37;102809.72;;;17.04;47.51
69245;BME280;56357;52.304;4.870;2023-03-03T02:09:10;102812.50;;;17.04;47.61
69245;BME280;56357;52.304;4.870;2023-03-03T02:11:41;102809.72;;;17.04;47.68
69245;BME280;56357;52.304;4.870;2023-03-03T02:14:11;102809.28;;;17.00;47.83
69245;BME280;56357;52.304;4.870;2023-03-03T02:16:38;102818.53;;;17.01;47.70
69245;BME280;56357;52.304;4.870;2023-03-03T02:19:09;102808.25;;;16.95;47.54
69245;BME280;56357;52.304;4.870;2023-03-03T02:21:38;102807.59;;;16.99;47.32
69245;BME280;56357;52.304;4.870;2023-03-03T02:24:10;102811.50;;;16.92;47.81
69245;BME280;56357;52.304;4.870;2023-03-03T02:26:40;102823.34;;;16.94;47.59
69245;BME280;56357;52.304;4.870;2023-03-03T02:29:08;102811.69;;;16.97;47.64
69245;BME280;56357;52.304;4.870;2023-03-03T02:31:35;102810.41;;;16.93;47.37
69245;BME280;56357;52.304;4.870;2023-03-03T02:34:03;102814.97;;;16.87;47.59
69245;BME280;56357;52.304;4.870;2023-03-03T02:36:32;102811.75;;;16.90;47.59
69245;BME280;56357;52.304;4.870;2023-03-03T02:39:19;102810.00;;;16.89;47.37
69245;BME280;56357;52.304;4.870;2023-03-03T02:42:03;102811.31;;;16.87;47.60
69245;BME280;56357;52.304;4.870;2023-03-03T02:44:32;102806.19;;;16.84;47.59
69245;BME280;56357;52.304;4.870;2023-03-03T02:46:59;102810.25;;;16.88;47.34
69245;BME280;56357;52.304;4.870;2023-03-03T02:49:28;102814.06;;;16.93;47.51
69245;BME280;56357;52.304;4.870;2023-03-03T02:51:55;102808.06;;;16.90;47.57
69245;BME280;56357;52.304;4.870;2023-03-03T02:54:23;102805.78;;;16.80;47.61
69245;BME280;56357;52.304;4.870;2023-03-03T02:56:50;102814.19;;;16.74;47.81
69245;BME280;56357;52.304;4.870;2023-03-03T02:59:17;102813.78;;;16.77;47.76
69245;BME280;56357;52.304;4.870;2023-03-03T03:01:45;102814.19;;;16.74;47.59
69245;BME280;56357;52.304;4.870;2023-03-03T03:04:14;102816.59;;;16.70;47.79
69245;BME280;56357;52.304;4.870;2023-03-03T03:06:42;102817.69;;;16.69;47.83
69245;BME280;56357;52.304;4.870;2023-03-03T03:09:09;102817.88;;;16.68;47.67
69245;BME280;56357;52.304;4.870;2023-03-03T03:11:37;102817.47;;;16.64;48.01
69245;BME280;56357;52.304;4.870;2023-03-03T03:14:05;102810.41;;;16.62;47.85
69245;BME280;56357;52.304;4.870;2023-03-03T03:16:32;102809.56;;;16.61;47.96
69245;BME280;56357;52.304;4.870;2023-03-03T03:19:00;102813.22;;;16.62;48.00
69245;BME280;56357;52.304;4.870;2023-03-03T03:21:27;102819.25;;;16.59;48.33
69245;BME280;56357;52.304;4.870;2023-03-03T03:23:54;102805.88;;;16.61;48.13
69245;BME280;56357;52.304;4.870;2023-03-03T03:26:20;102812.59;;;16.60;48.31
69245;BME280;56357;52.304;4.870;2023-03-03T03:28:48;102812.59;;;16.60;48.39
69245;BME280;56357;52.304;4.870;2023-03-03T03:31:15;102820.97;;;16.60;48.24
69245;BME280;56357;52.304;4.870;2023-03-03T03:33:42;102813.63;;;16.65;48.13
69245;BME280;56357;52.304;4.870;2023-03-03T03:36:09;102817.25;;;16.66;48.27
69245;BME280;56357;52.304;4.870;2023-03-03T03:38:36;102820.75;;;16.61;48.53
69245;BME280;56357;52.304;4.870;2023-03-03T03:41:04;102818.75;;;16.68;48.01
69245;BME280;56357;52.304;4.870;2023-03-03T03:43:31;102818.53;;;16.70;47.95
69245;BME280;56357;52.304;4.870;2023-03-03T03:45:58;102821.13;;;16.71;48.22
69245;BME280;56357;52.304;4.870;2023-03-03T03:48:25;102828.41;;;16.79;47.84
69245;BME280;56357;52.304;4.870;2023-03-03T03:50:51;102818.75;;;16.68;48.27
69245;BME280;56357;52.304;4.870;2023-03-03T03:53:18;102828.66;;;16.71;48.25
69245;BME280;56357;52.304;4.870;2023-03-03T03:55:45;102830.97;;;16.74;48.28
69245;BME280;56357;52.304;4.870;2023-03-03T03:58:14;102827.34;;;16.73;48.08
69245;BME280;56357;52.304;4.870;2023-03-03T04:00:43;102835.50;;;16.75;48.07
69245;BME280;56357;52.304;4.870;2023-03-03T04:03:10;102828.59;;;16.77;48.14
69245;BME280;56357;52.304;4.870;2023-03-03T04:05:38;102833.38;;;16.70;48.42
69245;BME280;56357;52.304;4.870;2023-03-03T04:08:05;102841.78;;;16.64;48.42
69245;BME280;56357;52.304;4.870;2023-03-03T04:10:31;102835.28;;;16.76;47.83
69245;BME280;56357;52.304;4.870;2023-03-03T04:12:58;102841.13;;;16.75;48.16
69245;BME280;56357;52.304;4.870;2023-03-03T04:15:24;102835.25;;;16.83;48.04
69245;BME280;56357;52.304;4.870;2023-03-03T04:17:51;102831.34;;;16.90;47.93
69245;BME280;56357;52.304;4.870;2023-03-03T04:20:17;102835.59;;;16.93;47.66
69245;BME280;56357;52.304;4.870;2023-03-03T04:22:44;102827.91;;;16.88;47.67
69245;BME280;56357;52.304;4.870;2023-03-03T04:25:15;102837.13;;;16.89;47.79
69245;BME280;56357;52.304;4.870;2023-03-03T04:27:42;102834.16;;;16.84;48.01
69245;BME280;56357;52.304;4.870;2023-03-03T04:30:10;102829.38;;;16.91;47.36
69245;BME280;56357;52.304;4.870;2023-03-03T04:32:37;102843.16;;;16.92;47.74
69245;BME280;56357;52.304;4.870;2023-03-03T04:35:04;102837.34;;;16.94;47.86
69245;BME280;56357;52.304;4.870;2023-03-03T04:37:30;102841.47;;;16.85;47.61
69245;BME280;56357;52.304;4.870;2023-03-03T04:39:56;102837.81;;;16.84;47.77
69245;BME280;56357;52.304;4.870;2023-03-03T04:42:23;102841.91;;;16.88;47.96
69245;BME280;56357;52.304;4.870;2023-03-03T04:44:52;102839.63;;;16.72;48.14
69245;BME280;56357;52.304;4.870;2023-03-03T04:47:18;102830.72;;;16.82;48.02
69245;BME280;56357;52.304;4.870;2023-03-03T04:49:45;102838.47;;;16.86;47.98
69245;BME280;56357;52.304;4.870;2023-03-03T04:52:11;102832.16;;;16.91;47.67
69245;BME280;56357;52.304;4.870;2023-03-03T04:54:37;102843.81;;;16.88;47.91
69245;BME280;56357;52.304;4.870;2023-03-03T04:57:04;102847.75;;;16.80;48.22
69245;BME280;56357;52.304;4.870;2023-03-03T04:59:31;102845.50;;;16.95;47.77
69245;BME280;56357;52.304;4.870;2023-03-03T05:01:58;102848.44;;;17.07;47.65
69245;BME280;56357;52.304;4.870;2023-03-03T05:04:24;102856.03;;;17.00;47.52
69245;BME280;56357;52.304;4.870;2023-03-03T05:06:51;102843.16;;;16.92;47.62
69245;BME280;56357;52.304;4.870;2023-03-03T05:09:17;102844.00;;;16.93;47.73
69245;BME280;56357;52.304;4.870;2023-03-03T05:11:44;102843.97;;;16.99;47.68
69245;BME280;56357;52.304;4.870;2023-03-03T05:14:10;102849.59;;;16.93;47.76
69245;BME280;56357;52.304;4.870;2023-03-03T05:16:37;102847.00;;;16.98;47.44
69245;BME280;56357;52.304;4.870;2023-03-03T05:19:03;102839.28;;;16.93;47.60
69245;BME280;56357;52.304;4.870;2023-03-03T05:21:30;102840.78;;;16.89;47.74
69245;BME280;56357;52.304;4.870;2023-03-03T05:23:56;102849.59;;;16.93;47.82
69245;BME280;56357;52.304;4.870;2023-03-03T05:26:23;102841.06;;;16.81;48.17
69245;BME280;56357;52.304;4.870;2023-03-03T05:28:50;102837.59;;;16.86;47.79
69245;BME280;56357;52.304;4.870;2023-03-03T05:31:16;102837.56;;;16.92;48.05
69245;BME280;56357;52.304;4.870;2023-03-03T05:33:43;102841.41;;;16.98;47.83
69245;BME280;56357;52.304;4.870;2023-03-03T05:36:09;102838.13;;;17.01;47.65
69245;BME280;56357;52.304;4.870;2023-03-03T05:38:36;102846.44;;;16.83;48.27
69245;BME280;56357;52.304;4.870;2023-03-03T05:41:02;102832.25;;;16.78;48.13
69245;BME280;56357;52.304;4.870;2023-03-03T05:43:29;102837.75;;;16.91;47.82
69245;BME280;56357;52.304;4.870;2023-03-03T05:45:56;102842.53;;;16.90;48.10
69245;BME280;56357;52.304;4.870;2023-03-03T05:48:23;102844.63;;;16.95;47.87
69245;BME280;56357;52.304;4.870;2023-03-03T05:50:49;102843.09;;;16.99;47.33
69245;BME280;56357;52.304;4.870;2023-03-03T05:53:16;102841.59;;;16.96;47.41
69245;BME280;56357;52.304;4.870;2023-03-03T05:55:42;102841.84;;;16.95;47.85
69245;BME280;56357;52.304;4.870;2023-03-03T05:58:09;102849.44;;;16.81;47.80
69245;BME280;56357;52.304;4.870;2023-03-03T06:00:36;102853.09;;;16.88;47.81
69245;BME280;56357;52.304;4.870;2023-03-03T06:03:03;102847.03;;;16.91;47.87
69245;BME280;56357;52.304;4.870;2023-03-03T06:05:29;102841.84;;;16.95;47.92
69245;BME280;56357;52.304;4.870;2023-03-03T06:07:55;102855.56;;;17.03;47.34
69245;BME280;56357;52.304;4.870;2023-03-03T06:10:22;102852.84;;;16.90;47.93
69245;BME280;56357;52.304;4.870;2023-03-03T06:12:49;102856.47;;;16.97;47.85
69245;BME280;56357;52.304;4.870;2023-03-03T06:15:16;102856.47;;;16.97;47.84
69245;BME280;56357;52.304;4.870;2023-03-03T06:17:42;102853.66;;;16.97;47.77
69245;BME280;56357;52.304;4.870;2023-03-03T06:20:09;102851.25;;;17.00;47.67
69245;BME280;56357;52.304;4.870;2023-03-03T06:22:36;102851.31;;;16.94;48.13
69245;BME280;56357;52.304;4.870;2023-03-03T06:25:03;102854.34;;;16.92;48.03
69245;BME280;56357;52.304;4.870;2023-03-03T06:27:29;102861.03;;;16.85;47.98
69245;BME280;56357;52.304;4.870;2023-03-03T06:29:56;102854.94;;;17.01;47.84
69245;BME280;56357;52.304;4.870;2023-03-03T06:32:22;102854.13;;;16.94;47.64
69245;BME280;56357;52.304;4.870;2023-03-03T06:34:49;102861.44;;;16.95;48.11
69245;BME280;56357;52.304;4.870;2023-03-03T06:37:15;102863.50;;;16.75;48.94
69245;BME280;56357;52.304;4.870;2023-03-03T06:39:42;102860.75;;;16.99;48.54
69245;BME280;56357;52.304;4.870;2023-03-03T06:42:08;102867.66;;;16.97;47.51
69245;BME280;56357;52.304;4.870;2023-03-03T06:44:35;102859.44;;;16.71;48.72
69245;BME280;56357;52.304;4.870;2023-03-03T06:47:02;102857.78;;;16.94;48.47
69245;BME280;56357;52.304;4.870;2023-03-03T06:49:30;102871.97;;;16.93;48.65
69245;BME280;56357;52.304;4.870;2023-03-03T06:51:58;102864.84;;;16.97;48.48
69245;BME280;56357;52.304;4.870;2023-03-03T06:54:28;102866.94;;;17.39;48.61
69245;BME280;56357;52.304;4.870;2023-03-03T06:56:58;102873.91;;;17.30;48.21
69245;BME280;56357;52.304;4.870;2023-03-03T06:59:26;102873.72;;;16.94;49.01
69245;BME280;56357;52.304;4.870;2023-03-03T07:01:53;102877.09;;;17.02;49.89
69245;BME280;56357;52.304;4.870;2023-03-03T07:04:29;102878.59;;;17.05;49.01
69245;BME280;56357;52.304;4.870;2023-03-03T07:06:59;102872.84;;;16.93;49.85
69245;BME280;56357;52.304;4.870;2023-03-03T07:09:31;102881.03;;;16.95;50.20
69245;BME280;56357;52.304;4.870;2023-03-03T07:12:05;102879.47;;;17.05;49.80
69245;BME280;56357;52.304;4.870;2023-03-03T07:14:41;102882.50;;;17.04;50.39
69245;BME280;56357;52.304;4.870;2023-03-03T07:17:18;102887.88;;;16.99;50.28
69245;BME280;56357;52.304;4.870;2023-03-03T07:19:46;102897.72;;;17.08;50.85
69245;BME280;56357;52.304;4.870;2023-03-03T07:24:40;102895.66;;;16.97;51.29
69245;BME280;56357;52.304;4.870;2023-03-03T07:27:14;102903.69;;;17.18;50.91
69245;BME280;56357;52.304;4.870;2023-03-03T07:29:46;102902.53;;;17.01;51.28
69245;BME280;56357;52.304;4.870;2023-03-03T07:37:59;102902.00;;;17.17;51.54
69245;BME280;56357;52.304;4.870;2023-03-03T07:42:59;102908.50;;;17.11;51.22
69245;BME280;56357;52.304;4.870;2023-03-03T07:48:03;102922.78;;;17.34;51.05
69245;BME280;56357;52.304;4.870;2023-03-03T07:50:34;102923.03;;;17.26;51.21
69245;BME280;56357;52.304;4.870;2023-03-03T07:53:01;102923.00;;;17.32;50.90
69245;BME280;56357;52.304;4.870;2023-03-03T07:58:28;102930.97;;;17.29;51.42
69245;BME280;56357;52.304;4.870;2023-03-03T08:03:56;102933.09;;;17.40;51.01
69245;BME280;56357;52.304;4.870;2023-03-03T08:06:41;102942.75;;;17.44;51.45
69245;BME280;56357;52.304;4.870;2023-03-03T08:11:46;102939.31;;;17.42;50.88
69245;BME280;56357;52.304;4.870;2023-03-03T08:14:15;102943.28;;;17.28;51.53
69245;BME280;56357;52.304;4.870;2023-03-03T08:16:46;102942.78;;;17.37;50.62
69245;BME280;56357;52.304;4.870;2023-03-03T08:19:15;102940.66;;;17.33;50.31
69245;BME280;56357;52.304;4.870;2023-03-03T08:21:42;102946.72;;;17.30;50.66
69245;BME280;56357;52.304;4.870;2023-03-03T08:24:09;102951.72;;;17.21;50.27
69245;BME280;56357;52.304;4.870;2023-03-03T08:26:36;102953.13;;;17.37;50.14
69245;BME280;56357;52.304;4.870;2023-03-03T08:29:03;102948.78;;;17.41;50.59
69245;BME280;56357;52.304;4.870;2023-03-03T08:31:29;102957.66;;;17.38;50.60
69245;BME280;56357;52.304;4.870;2023-03-03T08:33:56;102950.53;;;17.42;50.30
69245;BME280;56357;52.304;4.870;2023-03-03T08:36:23;102960.00;;;17.41;50.36
69245;BME280;56357;52.304;4.870;2023-03-03T08:38:49;102953.59;;;17.34;50.00
69245;BME280;56357;52.304;4.870;2023-03-03T08:41:16;102952.34;;;17.23;50.07
69245;BME280;56357;52.304;4.870;2023-03-03T08:43:42;102954.59;;;17.46;49.85
69245;BME280;56357;52.304;4.870;2023-03-03T08:46:09;102955.44;;;17.53;49.27
69245;BME280;56357;52.304;4.870;2023-03-03T08:48:36;102960.41;;;17.51;49.10
69245;BME280;56357;52.304;4.870;2023-03-03T08:51:03;102954.25;;;17.67;49.20
69245;BME280;56357;52.304;4.870;2023-03-03T08:53:30;102964.09;;;17.76;48.88
69245;BME280;56357;52.304;4.870;2023-03-03T08:56:01;102960.38;;;17.82;48.80
69245;BME280;56357;52.304;4.870;2023-03-03T08:58:27;102958.88;;;17.80;48.70
69245;BME280;56357;52.304;4.870;2023-03-03T09:00:53;102957.47;;;17.95;48.28
69245;BME280;56357;52.304;4.870;2023-03-03T09:03:20;102960.09;;;17.90;47.88
69245;BME280;56357;52.304;4.870;2023-03-03T09:05:46;102960.66;;;17.99;48.24
69245;BME280;56357;52.304;4.870;2023-03-03T09:08:13;102965.97;;;18.07;47.97
69245;BME280;56357;52.304;4.870;2023-03-03T09:10:39;102965.50;;;18.10;47.37
69245;BME280;56357;52.304;4.870;2023-03-03T09:13:17;102961.75;;;17.98;48.29
69245;BME280;56357;52.304;4.870;2023-03-03T09:15:46;102962.03;;;18.14;48.24
69245;BME280;56357;52.304;4.870;2023-03-03T09:18:24;102955.03;;;18.23;48.63
69245;BME280;56357;52.304;4.870;2023-03-03T09:20:55;102960.34;;;18.32;48.32
69245;BME280;56357;52.304;4.870;2023-03-03T09:23:35;102960.56;;;18.55;48.22
69245;BME280;56357;52.304;4.870;2023-03-03T09:28:41;102961.25;;;18.50;48.73
69245;BME280;56357;52.304;4.870;2023-03-03T09:31:42;102958.22;;;18.52;49.12
69245;BME280;56357;52.304;4.870;2023-03-03T09:36:55;102956.97;;;18.66;49.33
69245;BME280;56357;52.304;4.870;2023-03-03T09:39:26;102958.78;;;18.78;49.41
69245;BME280;56357;52.304;4.870;2023-03-03T09:42:16;102949.56;;;18.89;48.92
69245;BME280;56357;52.304;4.870;2023-03-03T09:58:39;102958.09;;;19.31;49.06
69245;BME280;56357;52.304;4.870;2023-03-03T10:04:18;102968.78;;;19.40;48.82
69245;BME280;56357;52.304;4.870;2023-03-03T10:15:31;102964.00;;;19.41;47.81
69245;BME280;56357;52.304;4.870;2023-03-03T10:18:34;102964.09;;;19.34;47.05
69245;BME280;56357;52.304;4.870;2023-03-03T10:21:11;102971.72;;;19.45;46.13
69245;BME280;56357;52.304;4.870;2023-03-03T10:23:52;102977.41;;;19.39;46.38
69245;BME280;56357;52.304;4.870;2023-03-03T10:26:33;102967.91;;;19.40;46.57
69245;BME280;56357;52.304;4.870;2023-03-03T10:31:32;102969.94;;;19.62;46.37
69245;BME280;56357;52.304;4.870;2023-03-03T10:37:08;102970.16;;;19.49;45.51
69245;BME280;56357;52.304;4.870;2023-03-03T10:45:44;102970.56;;;19.35;45.77
69245;BME280;56357;52.304;4.870;2023-03-03T10:51:01;102963.06;;;19.29;46.03
69245;BME280;56357;52.304;4.870;2023-03-03T10:56:37;102961.22;;;19.23;46.20
69245;BME280;56357;52.304;4.870;2023-03-03T11:01:58;102957.91;;;18.96;47.45
69245;BME280;56357;52.304;4.870;2023-03-03T11:10:17;102964.22;;;18.91;48.60
69245;BME280;56357;52.304;4.870;2023-03-03T11:15:59;102963.34;;;18.91;49.38
69245;BME280;56357;52.304;4.870;2023-03-03T11:18:41;102960.03;;;19.12;49.14
69245;BME280;56357;52.304;4.870;2023-03-03T11:21:21;102957.91;;;18.96;50.04
69245;BME280;56357;52.304;4.870;2023-03-03T11:23:52;102961.22;;;19.04;50.27
69245;BME280;56357;52.304;4.870;2023-03-03T11:26:27;102961.09;;;18.99;49.76
69245;BME280;56357;52.304;4.870;2023-03-03T11:31:48;102961.34;;;18.98;48.46
69245;BME280;56357;52.304;4.870;2023-03-03T11:34:52;102955.09;;;18.96;48.26
69245;BME280;56357;52.304;4.870;2023-03-03T11:40:19;102950.81;;;18.75;47.78
69245;BME280;56357;52.304;4.870;2023-03-03T11:42:55;102960.97;;;18.76;47.04
69245;BME280;56357;52.304;4.870;2023-03-03T11:45:46;102958.84;;;18.72;47.65
69245;BME280;56357;52.304;4.870;2023-03-03T11:48:19;102963.59;;;18.71;47.65
69245;BME280;56357;52.304;4.870;2023-03-03T11:50:56;102959.31;;;18.69;48.06
69245;BME280;56357;52.304;4.870;2023-03-03T11:56:00;102965.47;;;18.77;48.38
69245;BME280;56357;52.304;4.870;2023-03-03T12:01:17;102950.44;;;18.54;48.97
69245;BME280;56357;52.304;4.870;2023-03-03T12:03:56;102952.59;;;18.70;48.45
69245;BME280;56357;52.304;4.870;2023-03-03T12:11:44;102944.50;;;18.80;48.66
69245;BME280;56357;52.304;4.870;2023-03-03T12:17:05;102936.06;;;18.98;48.12
69245;BME280;56357;52.304;4.870;2023-03-03T12:22:15;102931.88;;;18.71;49.20
69245;BME280;56357;52.304;4.870;2023-03-03T12:28:17;102934.28;;;18.85;49.07
69245;BME280;56357;52.304;4.870;2023-03-03T12:39:24;102925.38;;;18.88;48.87
69245;BME280;56357;52.304;4.870;2023-03-03T12:47:37;102922.81;;;18.87;48.86
69245;BME280;56357;52.304;4.870;2023-03-03T12:50:29;102928.59;;;18.92;48.60
69245;BME280;56357;52.304;4.870;2023-03-03T12:58:23;102919.38;;;18.85;48.62
69245;BME280;56357;52.304;4.870;2023-03-03T13:04:38;102913.75;;;18.85;48.85
69245;BME280;56357;52.304;4.870;2023-03-03T13:14:49;102910.19;;;18.78;48.87
69245;BME280;56357;52.304;4.870;2023-03-03T13:17:22;102916.28;;;18.75;48.66
69245;BME280;56357;52.304;4.870;2023-03-03T13:19:57;102918.69;;;18.71;48.92
69245;BME280;56357;52.304;4.870;2023-03-03T13:22:38;102917.84;;;18.71;49.30
69245;BME280;56357;52.304;4.870;2023-03-03T13:25:28;102915.56;;;18.79;49.16
69245;BME280;56357;52.304;4.870;2023-03-03T13:28:01;102919.47;;;18.78;50.08
69245;BME280;56357;52.304;4.870;2023-03-03T13:30:34;102910.44;;;18.76;50.99
69245;BME280;56357;52.304;4.870;2023-03-03T13:33:15;102913.94;;;18.72;51.00
69245;BME280;56357;52.304;4.870;2023-03-03T13:35:52;102909.13;;;18.61;51.26
69245;BME280;56357;52.304;4.870;2023-03-03T13:38:23;102913.38;;;18.81;50.48
69245;BME280;56357;52.304;4.870;2023-03-03T13:43:42;102906.91;;;18.81;50.20
69245;BME280;56357;52.304;4.870;2023-03-03T13:46:17;102912.38;;;18.76;50.25
69245;BME280;56357;52.304;4.870;2023-03-03T13:49:13;102915.66;;;18.73;50.14
69245;BME280;56357;52.304;4.870;2023-03-03T13:52:01;102916.13;;;18.70;49.93
69245;BME280;56357;52.304;4.870;2023-03-03T13:57:29;102908.88;;;18.62;49.77
69245;BME280;56357;52.304;4.870;2023-03-03T14:05:51;102915.03;;;18.53;50.17
69245;BME280;56357;52.304;4.870;2023-03-03T14:08:43;102915.78;;;18.42;50.05
69245;BME280;56357;52.304;4.870;2023-03-03T14:11:34;102915.03;;;18.53;49.29
69245;BME280;56357;52.304;4.870;2023-03-03T14:17:14;102909.50;;;18.46;49.17
69245;BME280;56357;52.304;4.870;2023-03-03T14:19:45;102902.94;;;18.52;49.18
69245;BME280;56357;52.304;4.870;2023-03-03T14:25:00;102906.31;;;18.61;48.37
69245;BME280;56357;52.304;4.870;2023-03-03T14:27:34;102902.00;;;18.58;48.31
69245;BME280;56357;52.304;4.870;2023-03-03T14:30:26;102899.13;;;18.65;48.09
69245;BME280;56357;52.304;4.870;2023-03-03T14:35:50;102896.56;;;18.45;49.07
69245;BME280;56357;52.304;4.870;2023-03-03T14:38:19;102894.38;;;18.47;48.70
69245;BME280;56357;52.304;4.870;2023-03-03T14:40:47;102893.53;;;18.47;48.67
69245;BME280;56357;52.304;4.870;2023-03-03T14:43:22;102885.09;;;18.47;48.46
69245;BME280;56357;52.304;4.870;2023-03-03T14:45:50;102883.53;;;18.51;48.07
69245;BME280;56357;52.304;4.870;2023-03-03T14:48:20;102881.66;;;18.45;48.48
69245;BME280;56357;52.304;4.870;2023-03-03T14:55:47;102869.50;;;18.33;48.58
69245;BME280;56357;52.304;4.870;2023-03-03T14:58:40;102875.25;;;18.38;49.60
69245;BME280;56357;52.304;4.870;2023-03-03T15:01:33;102874.78;;;18.41;49.23
69245;BME280;56357;52.304;4.870;2023-03-03T15:09:37;102870.25;;;18.21;47.31
69245;BME280;56357;52.304;4.870;2023-03-03T15:12:21;102874.94;;;18.09;48.03
69245;BME280;56357;52.304;4.870;2023-03-03T15:14:51;102869.34;;;18.09;48.09
69245;BME280;56357;52.304;4.870;2023-03-03T15:17:27;102861.63;;;18.05;47.73
69245;BME280;56357;52.304;4.870;2023-03-03T15:23:07;102856.47;;;18.02;48.36
69245;BME280;56357;52.304;4.870;2023-03-03T15:25:44;102849.72;;;18.09;47.98
69245;BME280;56357;52.304;4.870;2023-03-03T15:31:21;102846.81;;;18.34;47.80
69245;BME280;56357;52.304;4.870;2023-03-03T15:36:47;102848.63;;;18.47;47.91
69245;BME280;56357;52.304;4.870;2023-03-03T15:42:14;102844.84;;;18.35;47.64
69245;BME280;56357;52.304;4.870;2023-03-03T15:56:18;102858.72;;;17.93;50.63
69245;BME280;56357;52.304;4.870;2023-03-03T16:01:25;102845.38;;;17.89;50.30
69245;BME280;56357;52.304;4.870;2023-03-03T16:06:43;102841.50;;;17.90;48.73
69245;BME280;56357;52.304;4.870;2023-03-03T16:09:31;102848.41;;;17.87;49.50
69245;BME280;56357;52.304;4.870;2023-03-03T16:15:45;102847.78;;;17.85;49.07
69245;BME280;56357;52.304;4.870;2023-03-03T16:21:19;102846.72;;;17.86;49.07
69245;BME280;56357;52.304;4.870;2023-03-03T16:23:51;102851.47;;;17.86;50.08
69245;BME280;56357;52.304;4.870;2023-03-03T16:32:04;102838.59;;;17.78;50.37
69245;BME280;56357;52.304;4.870;2023-03-03T16:34:55;102848.41;;;17.87;51.10
69245;BME280;56357;52.304;4.870;2023-03-03T16:37:35;102851.84;;;17.89;50.99
69245;BME280;56357;52.304;4.870;2023-03-03T16:40:22;102855.22;;;17.73;51.68
69245;BME280;56357;52.304;4.870;2023-03-03T16:43:01;102856.97;;;17.74;51.22
69245;BME280;56357;52.304;4.870;2023-03-03T16:45:37;102859.78;;;17.74;51.79
69245;BME280;56357;52.304;4.870;2023-03-03T16:53:42;102855.97;;;17.87;56.60